Observations for NORWICH WEA CNTRE, United Kingdom (EGSH)

EGSH 201650Z 25015KT 200V270 9999 SCT041 24/15 Q1016 NOSIG  
EGSH 201620Z 27011KT 9999 SCT041 24/15 Q1016 NOSIG  
EGSH 201550Z 25014KT 220V300 9999 SCT034 24/15 Q1016 NOSIG  
EGSH 201520Z 25014KT 220V290 9999 SCT034 24/16 Q1017 NOSIG  
EGSH 201450Z 25014KT 220V280 9999 FEW034 24/16 Q1017 NOSIG  
EGSH 201420Z 25010KT 200V280 9999 FEW035 BKN046 24/16 Q1017 
EGSH 201350Z 23013KT 200V270 9999 FEW035 SCT044 24/17 Q1017 NOSIG   
EGSH 201320Z 23016KT 9999 FEW035 SCT044 25/16 Q1017 NOSIG   
EGSH 201250Z 25013KT 220V280 9999 FEW033 SCT039 24/16 Q1017 NOSIG   
EGSH 201220Z 24015KT 220V280 9999 FEW033 24/16 Q1017 NOSIG  
EGSH 201150Z 24014KT 200V280 9999 FEW025 23/16 Q1017 NOSIG  
EGSH 201120Z 24014KT 190V270 9999 FEW025 24/16 Q1017 NOSIG  
EGSH 201050Z 23016KT 200V270 9999 FEW025 23/16 Q1018 NOSIG  
EGSH 201020Z 23015KT 200V270 9999 SCT024 23/16 Q1018 NOSIG  
EGSH 200950Z 22017KT 9999 SCT022 23/17 Q1018 NOSIG  
EGSH 200920Z 22016KT 190V250 9999 SCT017 22/16 Q1018 NOSIG  
EGSH 200850Z 21015KT 190V250 9999 SCT014 21/16 Q1018 NOSIG  
EGSH 200820Z 22014KT 9999 SCT014 20/16 Q1018 NOSIG  
EGSH 200750Z 23013KT 9999 SCT011 BKN016 19/16 Q1019 NOSIG   
EGSH 200720Z 24011KT 9999 BKN009 18/16 Q1019 BECMG SCT009   
EGSH 200650Z 22011KT 190V250 9999 BKN009 18/16 Q1019 BECMG SCT009   
EGSH 200620Z 22011KT 9999 SCT010 BKN017 18/16 Q1019 TEMPO BKN010
EGSH 200550Z 22009KT 190V250 9999 FEW015 18/16 Q1019 NOSIG  
EGSH 200520Z 23008KT 9999 FEW015 17/16 Q1019 NOSIG  
EGSH 200450Z 22008KT CAVOK 16/15 Q1019 NOSIG
EGSH 200420Z AUTO 23007KT 9999 NCD 16/15 Q1019  
EGSH 200350Z AUTO 22007KT 9999 NCD 16/15 Q1019  
EGSH 200320Z AUTO 22008KT 9999 NCD 16/15 Q1019  
EGSH 200250Z AUTO 22009KT 9999 NCD 16/15 Q1019  
EGSH 200220Z AUTO 22008KT 9999 NCD 17/15 Q1019  
EGSH 200150Z AUTO 22007KT 9999 NCD 17/15 Q1019  
EGSH 200120Z AUTO 22007KT 9999 NCD 17/15 Q1020  
EGSH 200050Z AUTO 23007KT 9999 NCD 17/15 Q1020  
EGSH 200020Z AUTO 22006KT 9999 NCD 17/15 Q1020  
EGSH 192350Z AUTO 23008KT 9999 NCD 18/15 Q1020  
EGSH 192320Z AUTO 23008KT 9999 NCD 18/16 Q1020  
EGSH 192250Z AUTO 22009KT 9999 NCD 19/16 Q1020  
EGSH 192220Z AUTO 22007KT 9999 NCD 19/16 Q1020  
EGSH 192150Z AUTO 22007KT 9999 NCD 19/16 Q1020  
EGSH 192120Z 22005KT CAVOK 18/15 Q1021 NOSIG
EGSH 192050Z 24006KT CAVOK 20/16 Q1021 NOSIG
EGSH 192020Z 23008KT 9999 FEW035 21/16 Q1020 NOSIG  
EGSH 191950Z 24008KT 210V270 9999 FEW035 22/16 Q1020 NOSIG  
EGSH 191920Z 24009KT 9999 FEW035 22/16 Q1020 NOSIG  
EGSH 191820Z 24009KT 200V270 9999 SCT035 22/16 Q1020 NOSIG  
EGSH 191750Z 23008KT 9999 SCT037 23/16 Q1020 NOSIG  
EGSH 191720Z 22008KT 9999 SCT037 23/16 Q1020 NOSIG  
EGSH 191650Z 21011KT 9999 SCT037 23/16 Q1020 NOSIG  
EGSH 191620Z 22009KT 180V250 9999 SCT035 24/16 Q1020 NOSIG